Time;durP1;ratioP1;P1;durP2;ratioP2;P2;SDS_P1;SDS_P2;PMS_P1;PMS_P2;Temp;Humidity;BMP_temperature;BMP_pressure;BME280_temperature;BME280_humidity;BME280_pressure;Samples;Min_cycle;Max_cycle;Signal;HPM_P1;HPM_P2
2022/09/26 00:00:47;;;;;;;10.32;2.20;;;;;;;-143.48;73.68;78343.34;5013388;28;20478;-41
2022/09/26 00:03:12;;;;;;;8.35;2.72;;;;;;;-143.48;72.84;78315.59;5013436;28;20025;-42
2022/09/26 00:05:38;;;;;;;5.03;2.35;;;;;;;-143.48;73.17;78313.59;4995422;28;20185;-42
2022/09/26 00:08:05;;;;;;;4.68;2.22;;;;;;;-143.48;73.20;78307.66;5014877;28;20030;-42
2022/09/26 00:10:30;;;;;;;4.15;2.10;;;;;;;-143.48;72.98;78305.66;5016909;28;20032;-42
2022/09/26 00:12:56;;;;;;;5.40;2.10;;;;;;;-143.48;72.74;78293.78;5017334;28;20453;-41
2022/09/26 00:15:22;;;;;;;7.20;2.58;;;;;;;-143.48;73.19;78293.78;5016478;28;20373;-42
2022/09/26 00:17:47;;;;;;;6.60;2.28;;;;;;;-143.48;73.39;78293.78;5017194;28;20097;-40
2022/09/26 00:20:12;;;;;;;5.38;2.08;;;;;;;-143.48;73.08;78295.75;5016541;28;20037;-42
2022/09/26 00:22:38;;;;;;;8.45;2.40;;;;;;;-143.48;73.26;78293.78;5017381;28;20057;-41
2022/09/26 00:25:03;;;;;;;6.13;2.13;;;;;;;-143.48;73.85;78293.78;5016487;28;20049;-42
2022/09/26 00:27:29;;;;;;;6.68;2.00;;;;;;;-143.48;73.54;78279.88;5016913;28;20104;-41
2022/09/26 00:29:54;;;;;;;8.25;2.05;;;;;;;-143.48;73.67;78281.88;5016487;28;20040;-42
2022/09/26 00:32:19;;;;;;;16.98;2.75;;;;;;;-143.48;74.04;78283.84;5016396;28;20022;-41
2022/09/26 00:34:45;;;;;;;5.38;1.70;;;;;;;-143.48;73.64;78266.00;5016675;28;20030;-42
2022/09/26 00:37:10;;;;;;;3.20;1.80;;;;;;;-143.48;74.19;78268.00;5016552;28;20416;-41
2022/09/26 00:39:35;;;;;;;3.60;1.80;;;;;;;-143.48;74.12;78254.09;5016344;28;20026;-41
2022/09/26 00:42:01;;;;;;;5.07;1.98;;;;;;;-143.48;74.34;78260.06;5016815;28;20053;-41
2022/09/26 00:44:36;;;;;;;2.72;1.50;;;;;;;-143.48;74.40;78262.03;5016525;28;20457;-41
2022/09/26 00:47:02;;;;;;;8.70;1.85;;;;;;;-143.48;74.62;78252.13;5016236;28;20105;-42
2022/09/26 00:49:30;;;;;;;6.85;1.90;;;;;;;-143.48;74.69;78246.19;5016207;28;20040;-43
2022/09/26 00:51:58;;;;;;;4.68;2.03;;;;;;;-143.48;74.35;78242.22;5016137;28;20514;-42
2022/09/26 00:54:27;;;;;;;5.38;1.95;;;;;;;-143.48;74.35;78232.28;5016164;28;20046;-42
2022/09/26 00:56:55;;;;;;;6.50;1.95;;;;;;;-143.48;74.55;78238.25;5016044;28;20480;-42
2022/09/26 00:59:32;;;;;;;4.18;1.80;;;;;;;-143.48;74.65;78238.25;5015924;28;20022;-42
2022/09/26 01:01:58;;;;;;;5.60;1.75;;;;;;;-143.48;74.67;78234.28;4998347;28;20041;-42
2022/09/26 01:04:27;;;;;;;11.90;2.00;;;;;;;-143.48;74.46;78222.38;4998379;28;20480;-40
2022/09/26 01:06:55;;;;;;;8.80;2.20;;;;;;;-143.48;74.75;78224.38;5015750;28;20022;-42
2022/09/26 01:09:21;;;;;;;7.50;2.08;;;;;;;-143.48;74.39;78208.50;5015808;28;20036;-42
2022/09/26 01:11:47;;;;;;;5.90;1.70;;;;;;;-143.48;74.20;78202.56;5015761;28;20034;-41
2022/09/26 01:14:12;;;;;;;10.20;1.88;;;;;;;-143.48;74.11;78206.50;5015781;28;20503;-42
2022/09/26 01:16:40;;;;;;;5.10;1.80;;;;;;;-143.48;74.36;78212.47;5016239;28;20029;-41
2022/09/26 01:19:19;;;;;;;5.85;1.92;;;;;;;-143.48;74.01;78202.56;5015544;28;20157;-41
2022/09/26 01:21:57;;;;;;;4.97;1.90;;;;;;;-143.48;74.26;78192.63;5015796;28;20037;-41
2022/09/26 01:25:02;;;;;;;8.23;1.80;;;;;;;-143.48;73.92;78194.63;5015769;28;20373;-42
2022/09/26 01:27:37;;;;;;;6.20;2.00;;;;;;;-143.48;74.35;78186.69;5001301;28;20429;-42
2022/09/26 01:30:08;;;;;;;5.50;1.70;;;;;;;-143.48;74.18;78194.63;5015694;28;20022;-42
2022/09/26 01:32:56;;;;;;;5.15;1.90;;;;;;;-143.48;74.13;78180.72;5015598;28;20040;-42
2022/09/26 01:35:46;;;;;;;5.97;1.58;;;;;;;-143.48;73.83;78174.78;5015324;28;20029;-43
2022/09/26 01:38:17;;;;;;;5.40;1.60;;;;;;;-143.48;73.95;78166.84;5015816;28;20029;-42
2022/09/26 01:40:51;;;;;;;3.03;1.60;;;;;;;-143.48;73.68;78174.78;5015509;28;20028;-42
2022/09/26 01:43:47;;;;;;;9.52;1.80;;;;;;;-143.48;73.35;78152.97;5015371;28;20383;-42
2022/09/26 01:46:15;;;;;;;4.95;1.80;;;;;;;-143.48;72.53;78145.03;4997495;28;20528;-43
2022/09/26 01:48:47;;;;;;;7.07;1.70;;;;;;;-143.48;72.86;78147.03;5015108;28;20388;-42
2022/09/26 01:51:23;;;;;;;7.65;1.70;;;;;;;-143.48;72.72;78145.03;5015005;28;20431;-43
2022/09/26 01:53:58;;;;;;;5.97;1.85;;;;;;;-143.48;73.32;78133.13;5015057;28;20042;-42
2022/09/26 01:56:27;;;;;;;5.97;1.80;;;;;;;-143.48;74.14;78147.03;4997385;28;20076;-42
2022/09/26 01:58:58;;;;;;;10.73;2.40;;;;;;;-143.48;75.18;78162.88;5014941;28;20061;-42
2022/09/26 02:01:28;;;;;;;7.47;2.30;;;;;;;-143.48;74.93;78154.94;5014935;28;20057;-42
2022/09/26 02:04:03;;;;;;;8.02;2.10;;;;;;;-143.48;75.80;78147.03;5015062;28;20061;-43
2022/09/26 02:06:41;;;;;;;8.10;2.25;;;;;;;-143.48;75.65;78152.97;4997390;28;20022;-43
2022/09/26 02:09:11;;;;;;;6.35;2.25;;;;;;;-143.48;76.65;78151.00;5014940;28;20528;-43
2022/09/26 02:11:40;;;;;;;6.25;2.30;;;;;;;-143.48;77.35;78141.06;5014965;28;20442;-43
2022/09/26 02:14:12;;;;;;;13.50;2.20;;;;;;;-143.48;76.99;78145.03;5014843;28;20030;-43
2022/09/26 02:16:54;;;;;;;6.15;2.50;;;;;;;-143.48;76.94;78149.00;5014708;28;20026;-43
2022/09/26 02:19:23;;;;;;;6.75;2.45;;;;;;;-143.48;77.60;78137.09;4996984;28;20061;-43
2022/09/26 02:21:49;;;;;;;10.45;3.25;;;;;;;-143.48;76.96;78129.16;5014781;28;20448;-42
2022/09/26 02:24:14;;;;;;;7.75;2.70;;;;;;;-143.48;76.85;78139.09;5014523;28;20073;-43
2022/09/26 02:26:41;;;;;;;5.03;2.47;;;;;;;-143.48;77.62;78139.09;5014288;28;20534;-43
2022/09/26 02:29:08;;;;;;;5.65;2.40;;;;;;;-143.48;77.21;78141.06;5014171;28;20025;-41
2022/09/26 02:31:41;;;;;;;7.60;2.63;;;;;;;-143.48;77.22;78141.06;5013664;28;20105;-42
2022/09/26 02:34:07;;;;;;;5.00;2.53;;;;;;;-143.48;76.90;78137.09;5014302;28;20030;-42
2022/09/26 02:36:33;;;;;;;4.43;2.35;;;;;;;-143.48;77.20;78147.03;4996627;28;20029;-42
2022/09/26 02:39:00;;;;;;;4.72;2.65;;;;;;;-143.48;77.38;78141.06;5014381;28;20065;-42
2022/09/26 02:41:52;;;;;;;10.40;2.80;;;;;;;-143.48;77.64;78139.09;5014421;28;20394;-42
2022/09/26 02:44:33;;;;;;;3.97;2.60;;;;;;;-143.48;77.35;78141.06;5014670;28;20088;-41
2022/09/26 02:47:36;;;;;;;7.57;3.30;;;;;;;-143.48;76.63;78137.09;5014276;28;20088;-42
2022/09/26 02:50:10;;;;;;;7.22;2.80;;;;;;;-143.48;76.83;78137.09;5013937;28;20396;-41
2022/09/26 02:52:54;;;;;;;11.48;3.67;;;;;;;-143.48;77.57;78129.16;5013972;28;20044;-41
2022/09/26 02:55:36;;;;;;;8.05;2.97;;;;;;;-143.48;77.22;78117.28;5013790;28;20054;-42
2022/09/26 02:58:04;;;;;;;12.95;3.30;;;;;;;-143.48;76.48;78123.22;5014522;28;20026;-41
2022/09/26 03:00:42;;;;;;;7.55;3.17;;;;;;;-143.48;76.53;78119.25;5013729;28;20108;-42
2022/09/26 03:03:21;;;;;;;11.88;3.05;;;;;;;-143.48;75.54;78109.34;5013839;28;20025;-45
2022/09/26 03:05:50;;;;;;;5.80;3.10;;;;;;;-143.48;75.67;78111.31;5013752;28;20472;-46
2022/09/26 03:08:24;;;;;;;8.73;3.20;;;;;;;-143.48;75.43;78099.44;4996151;28;20030;-42
2022/09/26 03:10:50;;;;;;;;;;;;;;;-143.48;75.59;78101.41;5014104;28;20025;-43
2022/09/26 03:13:17;;;;;;;5.53;2.70;;;;;;;-143.48;74.62;78093.47;5014230;28;19913;-45
2022/09/26 03:15:47;;;;;;;7.53;2.90;;;;;;;-143.48;73.82;78097.44;5013723;28;20089;-46
2022/09/26 03:18:18;;;;;;;7.65;3.08;;;;;;;-143.48;73.89;78091.50;5013629;28;20022;-45
2022/09/26 03:20:44;;;;;;;7.90;3.28;;;;;;;-143.48;73.29;78093.47;5014147;28;20101;-44
2022/09/26 03:23:09;;;;;;;8.13;3.40;;;;;;;-143.48;73.39;78087.53;5013835;28;20109;-44
2022/09/26 03:25:35;;;;;;;6.25;3.08;;;;;;;-143.48;73.14;78087.53;5013586;28;20029;-45
2022/09/26 03:28:01;;;;;;;9.25;3.30;;;;;;;-143.48;73.32;78075.63;5013798;28;20532;-43
2022/09/26 03:30:31;;;;;;;8.07;2.95;;;;;;;-143.48;73.12;78075.63;5013792;28;20072;-44
2022/09/26 03:32:56;;;;;;;6.03;3.13;;;;;;;-143.48;73.00;78071.66;5013726;28;20030;-43
2022/09/26 03:35:21;;;;;;;6.15;3.03;;;;;;;-143.48;72.94;78065.72;5012786;28;20014;-44
2022/09/26 03:37:48;;;;;;;5.88;2.90;;;;;;;-143.48;72.21;78061.75;5014534;28;20022;-44
2022/09/26 03:40:14;;;;;;;8.05;2.90;;;;;;;-143.48;71.58;78061.75;5013278;28;20034;-45
2022/09/26 03:42:39;;;;;;;9.63;3.20;;;;;;;-143.48;70.88;78057.78;5016449;28;20487;-43
2022/09/26 03:45:09;;;;;;;8.45;3.53;;;;;;;-143.48;70.98;78051.84;5017858;28;20034;-45
2022/09/26 03:47:36;;;;;;;9.18;3.15;;;;;;;-143.48;70.62;78047.88;4999563;28;20049;-43
2022/09/26 03:50:02;;;;;;;11.93;3.53;;;;;;;-143.48;69.81;78041.91;5017497;28;20424;-45
2022/09/26 03:52:28;;;;;;;7.50;3.38;;;;;;;-143.48;70.23;78039.94;5017453;28;20049;-42
2022/09/26 03:54:53;;;;;;;9.93;3.05;;;;;;;-143.48;69.94;78028.03;5017220;28;20088;-44
2022/09/26 03:57:19;;;;;;;10.95;3.30;;;;;;;-143.48;69.91;78024.06;5017366;28;20080;-45
2022/09/26 03:59:44;;;;;;;8.15;3.25;;;;;;;-143.48;69.19;78039.94;5017458;28;20030;-43
2022/09/26 04:02:11;;;;;;;7.20;3.15;;;;;;;-143.48;68.88;78032.00;5017266;28;20021;-43
2022/09/26 04:04:36;;;;;;;12.43;3.55;;;;;;;-143.48;68.47;78020.09;5016950;28;20431;-44
2022/09/26 04:07:01;;;;;;;5.75;2.85;;;;;;;-143.48;68.42;78012.16;5017101;28;20018;-44
2022/09/26 04:09:27;;;;;;;10.65;3.75;;;;;;;-143.48;68.27;78000.28;5016887;28;20064;-45
2022/09/26 04:11:52;;;;;;;8.48;3.50;;;;;;;-143.48;68.03;77998.28;4999386;28;20105;-43
2022/09/26 04:14:18;;;;;;;7.43;3.00;;;;;;;-143.48;68.51;78018.13;5016794;28;20029;-45
2022/09/26 04:16:45;;;;;;;6.57;3.05;;;;;;;-143.48;67.48;77988.38;5016948;28;20028;-46
2022/09/26 04:19:11;;;;;;;6.30;3.30;;;;;;;-143.48;67.43;77986.41;5017006;28;20026;-45
2022/09/26 04:21:39;;;;;;;6.00;3.15;;;;;;;-143.48;66.54;77990.34;5016889;28;20473;-44
2022/09/26 04:24:05;;;;;;;5.38;3.00;;;;;;;-143.48;66.66;77976.47;5016874;28;20469;-43
2022/09/26 04:26:31;;;;;;;8.90;2.88;;;;;;;-143.48;66.78;77968.53;5016444;28;20032;-44
2022/09/26 04:28:57;;;;;;;6.93;3.15;;;;;;;-143.48;66.53;77972.50;5017054;28;20030;-46
2022/09/26 04:31:26;;;;;;;5.40;2.78;;;;;;;-143.48;66.42;77978.47;5016778;28;20072;-46
2022/09/26 04:33:53;;;;;;;7.68;3.05;;;;;;;-143.48;67.71;77974.50;5016398;28;20022;-43
2022/09/26 04:36:20;;;;;;;11.73;2.88;;;;;;;-143.48;67.23;77990.34;5016927;28;20030;-45
2022/09/26 04:38:45;;;;;;;5.72;3.00;;;;;;;-143.48;67.80;77976.47;5015939;28;20034;-46
2022/09/26 04:41:13;;;;;;;11.30;4.07;;;;;;;-143.48;67.47;77980.44;5016851;28;20029;-45
2022/09/26 04:43:39;;;;;;;5.43;2.50;;;;;;;-143.48;67.71;77984.41;5015960;28;20080;-44
2022/09/26 04:46:07;;;;;;;6.78;2.92;;;;;;;-143.48;68.03;77968.53;5016530;28;20222;-40
2022/09/26 04:48:32;;;;;;;7.35;3.13;;;;;;;-143.48;67.87;77968.53;4998479;28;20072;-44
2022/09/26 04:50:58;;;;;;;7.95;3.03;;;;;;;-143.48;68.20;77966.56;5016091;28;20034;-43
2022/09/26 04:53:23;;;;;;;6.05;2.80;;;;;;;-143.48;67.81;77956.66;5015325;28;20079;-44
2022/09/26 04:55:49;;;;;;;8.15;2.63;;;;;;;-143.48;68.00;77964.56;5015841;28;20050;-42
2022/09/26 04:58:16;;;;;;;7.18;2.70;;;;;;;-143.48;67.19;77960.63;4998971;28;20061;-44
2022/09/26 05:00:48;;;;;;;8.10;2.47;;;;;;;-143.48;67.83;77960.63;5015826;28;20064;-44
2022/09/26 05:03:15;;;;;;;7.65;2.85;;;;;;;-143.48;67.99;77966.56;5015905;28;20045;-44
2022/09/26 05:05:43;;;;;;;6.25;2.65;;;;;;;-143.48;67.60;77956.66;5016344;28;20475;-43
2022/09/26 05:08:10;;;;;;;7.28;2.58;;;;;;;-143.48;66.62;77952.69;5015673;28;20387;-43
2022/09/26 05:10:37;;;;;;;8.80;2.70;;;;;;;-143.48;67.12;77950.69;5016236;28;20029;-43
2022/09/26 05:13:03;;;;;;;5.15;2.60;;;;;;;-143.48;67.11;77954.66;5015915;28;20029;-44
2022/09/26 05:15:29;;;;;;;6.18;2.70;;;;;;;-143.48;67.19;77946.72;5015727;28;20025;-43
2022/09/26 05:17:59;;;;;;;5.25;2.60;;;;;;;-143.48;66.58;77940.78;5015593;28;20033;-45
2022/09/26 05:20:28;;;;;;;13.18;2.90;;;;;;;-143.48;66.63;77940.78;5015609;28;20101;-43
2022/09/26 05:22:57;;;;;;;5.07;2.75;;;;;;;-143.48;67.26;77944.75;5015747;28;20057;-44
2022/09/26 05:28:07;;;;;;;8.07;2.67;;;;;;;-143.48;67.60;77956.66;5015885;28;20036;-45
2022/09/26 05:30:34;;;;;;;10.05;2.70;;;;;;;-143.48;68.35;77956.66;5015194;28;20030;-45
2022/09/26 05:33:00;;;;;;;7.47;2.78;;;;;;;-143.48;68.75;77956.66;4997311;28;20021;-42
2022/09/26 05:35:26;;;;;;;6.88;2.35;;;;;;;-143.48;68.48;77956.66;5014905;28;20476;-44
2022/09/26 05:37:58;;;;;;;6.85;2.60;;;;;;;-143.48;69.27;77936.81;5015948;28;20029;-45
2022/09/26 05:43:07;;;;;;;8.15;2.55;;;;;;;-143.48;69.41;77938.81;5015453;28;20029;-45
2022/09/26 05:45:33;;;;;;;5.70;2.45;;;;;;;-143.48;70.09;77934.84;5015106;28;20038;-44
2022/09/26 05:47:58;;;;;;;6.57;2.50;;;;;;;-143.48;70.02;77942.78;5014819;28;20495;-43
2022/09/26 05:50:24;;;;;;;6.30;2.47;;;;;;;-143.48;69.93;77940.78;5014801;28;20079;-43
2022/09/26 05:52:50;;;;;;;6.78;3.03;;;;;;;-143.48;70.15;77932.84;5015251;28;20071;-37
2022/09/26 05:55:15;;;;;;;9.95;2.65;;;;;;;-143.48;69.80;77924.91;5014607;28;20058;-36
2022/09/26 05:57:57;;;;;;;7.97;2.58;;;;;;;-143.48;70.15;77922.94;5015159;28;20032;-36
2022/09/26 06:00:22;;;;;;;7.15;2.50;;;;;;;-143.48;69.54;77909.06;5015075;28;20058;-36
2022/09/26 06:02:58;;;;;;;8.77;2.70;;;;;;;-143.48;69.54;77911.03;5015251;28;20549;-36
2022/09/26 06:05:24;;;;;;;9.93;2.40;;;;;;;-143.48;68.63;77895.19;5013776;28;20034;-37
2022/09/26 06:07:51;;;;;;;4.07;2.40;;;;;;;-143.48;68.82;77887.25;5014751;28;20052;-37
2022/09/26 06:10:17;;;;;;;8.35;2.60;;;;;;;-143.48;68.57;77881.28;5014817;28;20036;-36
2022/09/26 06:12:43;;;;;;;4.75;2.28;;;;;;;-143.48;68.31;77881.28;5015059;28;20026;-37
2022/09/26 06:15:08;;;;;;;6.72;2.20;;;;;;;-143.48;68.43;77867.41;5015127;28;20053;-36
2022/09/26 06:17:34;;;;;;;7.75;2.22;;;;;;;-143.48;67.23;77851.56;5014707;28;20041;-36
2022/09/26 06:20:00;;;;;;;5.18;2.30;;;;;;;-143.48;67.26;77865.44;5014157;28;20124;-36
2022/09/26 06:22:25;;;;;;;6.10;2.10;;;;;;;-143.48;67.52;77849.56;5014312;28;20531;-35
2022/09/26 06:24:51;;;;;;;6.53;2.20;;;;;;;-143.48;67.31;77833.69;5014346;28;20061;-37
2022/09/26 06:27:16;;;;;;;6.72;2.70;;;;;;;-143.48;67.58;77825.78;5014055;28;20033;-37
2022/09/26 06:29:42;;;;;;;9.20;2.30;;;;;;;-143.48;66.65;77821.81;5014242;28;20026;-37
2022/09/26 06:32:07;;;;;;;7.32;2.50;;;;;;;-143.48;66.77;77819.81;5014289;28;20418;-36
2022/09/26 06:34:32;;;;;;;5.15;2.50;;;;;;;-143.48;66.49;77792.06;5014070;28;20106;-37
2022/09/26 06:36:58;;;;;;;6.38;2.30;;;;;;;-143.48;66.24;77784.13;5013735;28;20065;-38
2022/09/26 06:39:29;;;;;;;6.50;3.00;;;;;;;-143.48;66.33;77786.13;5013671;28;20034;-36
2022/09/26 06:41:54;;;;;;;4.78;2.20;;;;;;;-143.48;66.34;77774.22;5014402;28;20021;-37
2022/09/26 06:44:20;;;;;;;6.30;2.22;;;;;;;-143.48;66.51;77762.31;4995623;28;20079;-37
2022/09/26 06:46:46;;;;;;;7.50;2.40;;;;;;;-143.48;65.88;77754.38;5014216;28;20065;-37
2022/09/26 06:49:12;;;;;;;8.13;2.40;;;;;;;-143.48;65.92;77768.25;4996552;28;20076;-36
2022/09/26 06:51:37;;;;;;;9.32;2.40;;;;;;;-143.48;65.69;77750.41;5013810;28;20025;-36
2022/09/26 06:54:03;;;;;;;5.90;2.65;;;;;;;-143.48;65.49;77740.50;5014087;28;20099;-37
2022/09/26 06:56:28;;;;;;;6.88;2.55;;;;;;;-143.48;65.55;77716.72;5013830;28;20018;-37
2022/09/26 06:58:53;;;;;;;6.32;2.60;;;;;;;-143.48;65.01;77704.81;5013821;28;20022;-38
2022/09/26 07:01:18;;;;;;;4.25;2.42;;;;;;;-143.48;65.04;77708.78;4995864;28;20127;-37
2022/09/26 07:03:44;;;;;;;9.05;2.50;;;;;;;-143.48;65.91;77710.75;5014010;28;20025;-36
2022/09/26 07:06:09;;;;;;;8.38;2.40;;;;;;;-143.48;66.11;77718.69;4995544;28;20029;-37
2022/09/26 07:08:36;;;;;;;9.20;2.53;;;;;;;-143.48;66.08;77720.69;5013764;28;20036;-37
2022/09/26 07:11:01;;;;;;;9.23;2.67;;;;;;;-143.48;66.14;77726.63;5013753;28;20029;-36
2022/09/26 07:13:28;;;;;;;8.07;2.80;;;;;;;-143.48;66.33;77726.63;5013548;28;20100;-37
2022/09/26 07:15:57;;;;;;;6.57;2.40;;;;;;;-143.48;66.55;77734.56;4995615;28;20392;-37
2022/09/26 07:18:22;;;;;;;6.90;2.40;;;;;;;-143.48;66.43;77724.63;5013434;28;20105;-37
2022/09/26 07:20:48;;;;;;;7.32;2.53;;;;;;;-143.48;66.96;77726.63;5013408;28;20440;-36
2022/09/26 07:23:15;;;;;;;5.40;2.20;;;;;;;-143.48;67.08;77742.50;5013604;28;20026;-37
2022/09/26 07:25:44;;;;;;;5.78;2.40;;;;;;;-143.48;67.12;77732.56;5013598;28;20049;-35
2022/09/26 07:28:10;;;;;;;5.18;2.67;;;;;;;-143.48;67.18;77736.53;5013218;28;20056;-35
2022/09/26 07:30:35;;;;;;;9.00;2.70;;;;;;;-143.48;67.50;77728.59;5013991;28;20461;-36
2022/09/26 07:33:02;;;;;;;7.40;2.28;;;;;;;-143.48;67.46;77726.63;5012987;28;20079;-35
2022/09/26 07:35:34;;;;;;;6.28;2.30;;;;;;;-143.48;67.47;77710.75;5012758;28;20029;-37
2022/09/26 07:37:59;;;;;;;12.70;2.47;;;;;;;-143.48;67.70;77728.59;5012993;28;20093;-37
2022/09/26 07:40:25;;;;;;;6.88;2.58;;;;;;;-143.48;68.08;77720.69;5011887;28;20053;-37
2022/09/26 07:42:51;;;;;;;6.30;2.13;;;;;;;-143.48;67.63;77714.72;5012716;28;20091;-37
2022/09/26 07:50:09;;;;;;;4.60;2.15;;;;;;;-143.48;67.24;77694.91;5012540;28;20033;-37
2022/09/26 07:50:46;;;;;;;7.10;2.10;;;;;;;-143.48;68.11;77710.75;5013690;28;20060;-36
2022/09/26 07:53:12;;;;;;;4.50;2.40;;;;;;;-143.48;68.49;77690.94;4995573;28;20030;-37
2022/09/26 07:56:04;;;;;;;9.75;2.35;;;;;;;-143.48;67.76;77696.88;5013042;28;20054;-37
2022/09/26 07:58:24;;;;;;;4.63;2.42;;;;;;;-143.48;67.67;77683.00;5012813;28;20030;-36
2022/09/26 08:00:50;;;;;;;7.28;2.22;;;;;;;-143.48;67.78;77681.03;5012926;28;20068;-36
2022/09/26 08:03:16;;;;;;;12.10;2.30;;;;;;;-143.48;67.91;77675.06;5013206;28;20029;-36
2022/09/26 08:05:42;;;;;;;9.52;2.30;;;;;;;-143.48;68.09;77665.16;5013006;28;20052;-38
2022/09/26 08:08:07;;;;;;;6.35;2.50;;;;;;;-143.48;67.41;77649.28;5012956;28;20105;-37
2022/09/26 08:10:34;;;;;;;7.03;2.50;;;;;;;-143.48;67.58;77655.25;5012996;28;20476;-37
2022/09/26 08:13:00;;;;;;;8.85;2.40;;;;;;;-143.48;67.34;77639.38;5013775;28;20022;-37
2022/09/26 08:15:26;;;;;;;5.25;2.40;;;;;;;-143.48;67.43;77635.41;5013222;28;20033;-36
2022/09/26 08:17:51;;;;;;;6.22;2.60;;;;;;;-143.48;67.74;77615.59;5013170;28;20452;-36
2022/09/26 08:20:17;;;;;;;9.20;3.08;;;;;;;-143.48;68.51;77639.38;5012907;28;20084;-36
2022/09/26 08:22:42;;;;;;;5.32;2.50;;;;;;;-143.48;69.14;77645.31;5012979;28;20029;-36
2022/09/26 08:25:08;;;;;;;10.82;2.53;;;;;;;-143.48;69.96;77643.34;5013456;28;20468;-37
2022/09/26 08:27:34;;;;;;;8.90;2.90;;;;;;;-143.48;70.07;77621.53;5012962;28;20037;-36
2022/09/26 08:29:59;;;;;;;10.00;3.08;;;;;;;-143.48;70.39;77627.47;5016057;28;20076;-37
2022/09/26 08:32:25;;;;;;;9.40;3.03;;;;;;;-143.48;70.75;77631.44;5016854;28;20033;-37
2022/09/26 08:34:51;;;;;;;6.72;2.78;;;;;;;-143.48;71.36;77635.41;5016593;28;20436;-37
2022/09/26 08:37:16;;;;;;;9.15;2.72;;;;;;;-143.48;71.87;77637.41;4999088;28;20025;-37
2022/09/26 08:39:42;;;;;;;6.70;2.60;;;;;;;-143.48;72.89;77645.31;5016265;28;20063;-37
2022/09/26 08:42:31;;;;;;;6.38;2.60;;;;;;;-143.48;73.78;77673.09;5016294;28;20075;-38
2022/09/26 08:48:29;;;;;;;8.15;2.75;;;;;;;-143.48;75.65;77653.25;5016458;28;20040;-37
2022/09/26 08:51:10;;;;;;;5.80;3.10;;;;;;;-143.48;77.48;77688.94;5015845;28;20034;-36
2022/09/26 08:53:52;;;;;;;5.10;2.92;;;;;;;-143.48;78.87;77683.00;5016264;28;20033;-38
2022/09/26 08:56:22;;;;;;;7.07;3.17;;;;;;;-143.48;78.82;77686.97;5015677;28;20033;-37
2022/09/26 08:58:51;;;;;;;10.98;3.85;;;;;;;-143.48;79.92;77692.91;4998053;28;20133;-37
2022/09/26 09:01:25;;;;;;;7.40;3.08;;;;;;;-143.48;80.18;77684.97;5015006;28;20400;-37
2022/09/26 09:03:57;;;;;;;7.53;3.20;;;;;;;-143.48;80.40;77677.06;4997852;28;20030;-36
2022/09/26 09:06:27;;;;;;;10.23;3.75;;;;;;;-143.48;80.87;77647.31;5015534;28;20033;-37
2022/09/26 09:11:55;;;;;;;6.20;2.90;;;;;;;-143.48;79.98;77643.34;5026099;28;20105;-78
2022/09/26 09:14:46;;;;;;;5.88;3.40;;;;;;;-143.48;81.50;77577.91;5031089;28;20093;-76
2022/09/26 09:17:27;;;;;;;9.10;3.10;;;;;;;-143.48;79.53;77613.59;5031420;28;20026;-78
2022/09/26 09:20:14;;;;;;;8.30;3.30;;;;;;;-143.48;80.71;77609.63;5010213;28;20065;-77
2022/09/26 09:22:49;;;;;;;8.30;3.17;;;;;;;-143.48;80.59;77599.72;5029181;28;20034;-79
2022/09/26 09:25:20;;;;;;;12.27;3.40;;;;;;;-143.48;80.95;77609.63;5033817;28;20532;-78
2022/09/26 09:28:24;;;;;;;8.27;3.30;;;;;;;-143.48;80.51;77579.91;5031623;28;20056;-77
2022/09/26 09:31:02;;;;;;;9.05;3.22;;;;;;;-143.48;78.70;77510.50;5015425;28;20029;-79
2022/09/26 09:33:37;;;;;;;8.25;3.30;;;;;;;-143.48;78.91;77552.13;5000709;28;20037;-79
2022/09/26 09:36:13;;;;;;;7.63;3.38;;;;;;;-143.48;80.93;77544.19;5031542;28;20037;-78
2022/09/26 09:38:41;;;;;;;7.10;3.22;;;;;;;-143.48;81.08;77585.84;5029323;28;20056;-78
2022/09/26 09:41:17;;;;;;;7.70;3.38;;;;;;;-143.48;81.50;77560.06;5022817;28;20125;-78
2022/09/26 09:44:18;;;;;;;7.60;3.40;;;;;;;-143.48;81.54;77556.09;5007040;28;20390;-76
2022/09/26 09:46:44;;;;;;;10.15;3.53;;;;;;;-143.48;80.94;77569.97;4969612;28;20073;-77
2022/09/26 09:49:09;;;;;;;8.68;3.25;;;;;;;-143.48;82.21;77564.03;4989837;28;20026;-77
2022/09/26 09:51:34;;;;;;;10.65;3.20;;;;;;;-143.48;81.62;77566.00;5009159;28;20034;-77
2022/09/26 09:54:26;;;;;;;8.85;3.50;;;;;;;-143.48;82.10;77573.94;4991725;28;20035;-79
2022/09/26 09:57:18;;;;;;;8.82;3.47;;;;;;;-143.48;82.02;77542.22;5004747;28;20112;-77
2022/09/26 10:00:21;;;;;;;10.63;3.63;;;;;;;-143.48;80.22;77530.31;4990574;28;20022;-76
2022/09/26 10:03:03;;;;;;;9.68;3.38;;;;;;;-143.48;80.77;77542.22;4994536;28;20026;-77
2022/09/26 10:05:41;;;;;;;9.20;3.67;;;;;;;-143.48;82.13;77544.19;5009163;28;20022;-77
2022/09/26 10:08:15;;;;;;;7.93;3.65;;;;;;;-143.48;81.97;77536.28;4990047;28;20049;-79
2022/09/26 10:10:54;;;;;;;11.30;3.78;;;;;;;-143.48;82.46;77532.31;4990237;28;20042;-78
2022/09/26 10:13:24;;;;;;;9.88;3.50;;;;;;;-143.48;82.19;77500.59;5008439;28;20535;-77
2022/09/26 10:16:00;;;;;;;9.70;3.80;;;;;;;-143.48;81.53;77518.44;5010896;28;20022;-78
2022/09/26 10:18:26;;;;;;;10.13;3.83;;;;;;;-143.48;81.92;77534.28;4995518;28;20026;-80
2022/09/26 10:21:10;;;;;;;16.35;5.13;;;;;;;-143.48;82.13;77534.28;5013047;28;20026;-78
2022/09/26 10:23:40;;;;;;;9.50;3.78;;;;;;;-143.48;81.72;77524.38;4981735;28;20030;-78
2022/09/26 10:26:08;;;;;;;5.75;3.40;;;;;;;-143.48;82.03;77538.25;5013441;28;20094;-78
2022/09/26 10:28:47;;;;;;;11.38;4.10;;;;;;;-143.48;83.01;77532.31;4995898;28;20061;-79
2022/09/26 10:31:29;;;;;;;7.43;3.63;;;;;;;-143.48;82.85;77504.53;4994730;28;20533;-76
2022/09/26 10:33:59;;;;;;;13.38;3.80;;;;;;;-143.48;82.74;77528.34;5012450;28;20018;-79
2022/09/26 10:36:39;;;;;;;9.45;3.70;;;;;;;-143.48;82.99;77512.47;4996533;28;20014;-77
2022/09/26 10:42:11;;;;;;;10.07;3.60;;;;;;;-143.48;84.42;77536.28;5011663;28;20045;-79
2022/09/26 10:44:37;;;;;;;6.95;3.80;;;;;;;-143.48;84.19;77536.28;4996683;28;20497;-79
2022/09/26 10:47:12;;;;;;;7.45;3.78;;;;;;;-143.48;84.82;77522.38;4996912;28;20077;-81
2022/09/26 10:49:42;;;;;;;9.82;4.10;;;;;;;-143.48;84.50;77518.44;5015297;28;20041;-80
2022/09/26 10:52:24;;;;;;;7.22;3.55;;;;;;;-143.48;84.78;77528.34;4998728;28;20006;-81
2022/09/26 10:54:58;;;;;;;5.30;3.63;;;;;;;-143.48;85.11;77524.38;4998858;28;20200;-83
2022/09/26 10:57:32;;;;;;;9.07;3.80;;;;;;;-143.48;85.23;77514.47;5015740;28;20046;-83
2022/09/26 11:00:00;;;;;;;5.30;3.88;;;;;;;-143.48;85.19;77518.44;5000022;28;20030;-79
2022/09/26 11:02:27;;;;;;;6.13;3.60;;;;;;;-143.48;85.31;77520.41;5016501;28;20026;-79
2022/09/26 11:07:46;;;;;;;5.97;3.65;;;;;;;-143.48;85.12;77504.53;5016791;28;20049;-79
2022/09/26 11:10:15;;;;;;;6.72;3.42;;;;;;;-143.48;84.73;77506.53;4999680;28;20054;-80
2022/09/26 11:12:56;;;;;;;8.90;4.03;;;;;;;-143.48;84.81;77504.53;4999809;28;20027;-79
2022/09/26 11:15:22;;;;;;;6.38;3.80;;;;;;;-143.48;84.87;77508.50;5000059;28;20450;-80
2022/09/26 11:17:54;;;;;;;5.03;3.38;;;;;;;-143.48;84.98;77512.47;5016282;28;20026;-80
2022/09/26 11:20:39;;;;;;;7.10;3.60;;;;;;;-143.48;85.00;77488.69;5016947;28;20110;-80
2022/09/26 11:23:11;;;;;;;5.95;3.58;;;;;;;-143.48;85.65;77498.59;5017242;28;20026;-80
2022/09/26 11:26:22;;;;;;;5.97;3.83;;;;;;;-143.48;85.74;77486.69;4999043;28;20022;-80
2022/09/26 11:29:03;;;;;;;4.70;3.40;;;;;;;-143.48;85.70;77480.75;4970707;28;20037;-80
2022/09/26 11:31:35;;;;;;;5.63;3.70;;;;;;;-143.48;86.12;77480.75;4999743;28;20010;-79
2022/09/26 11:34:03;;;;;;;4.60;3.60;;;;;;;-143.48;86.74;77486.69;5016800;28;20006;-78
2022/09/26 11:37:10;;;;;;;5.47;3.42;;;;;;;-143.48;86.48;77476.78;5016237;28;20018;-78
2022/09/26 11:39:51;;;;;;;6.68;3.67;;;;;;;-143.48;86.46;77478.78;4980573;28;20062;-78
2022/09/26 11:42:32;;;;;;;4.88;3.67;;;;;;;-143.48;86.29;77454.97;4999744;28;20034;-78
2022/09/26 11:45:08;;;;;;;9.07;3.58;;;;;;;-143.48;86.09;77458.94;5017447;28;20082;-79
2022/09/26 11:47:49;;;;;;;9.15;3.47;;;;;;;-143.48;86.48;77462.91;5016543;28;20056;-78
2022/09/26 11:50:24;;;;;;;6.10;3.50;;;;;;;-143.48;86.50;77458.94;4999172;28;20034;-78
2022/09/26 11:53:18;;;;;;;7.20;3.80;;;;;;;-143.48;86.60;77433.16;4999417;28;20106;-78